<?xml version="1.0" encoding="UTF-8" standalone="no" ?>
<gpx xmlns="http://www.topografix.com/GPX/1/1" xmlns:xsi="http://www.w3.org/2001/XMLSchema-instance" xsi:schemaLocation="http://www.topografix.com/GPX/1/1 http://www.topografix.com/GPX/1/1/gpx.xsd" version="1.1" creator="VisuGPX - https://www.visugpx.com">
  <metadata>
    <name>Boucle col des Champs</name>
    <desc><![CDATA[Boucle col des Champs AR par même chemin....]]></desc>
  </metadata>
  <trk>
    <name><![CDATA[OR-6387481--Saint-Martin-d'Entraunes:Boucle Col des Champs]]></name>
    <trkseg>
      <trkpt lat="44.14907" lon="6.76297">
        <ele>1070</ele>
        <time>2016-08-05T15:30:48Z</time>
      </trkpt>
      <trkpt lat="44.14879" lon="6.76347">
        <ele>1069</ele>
        <time>2016-08-05T15:32:48Z</time>
      </trkpt>
      <trkpt lat="44.14798" lon="6.76376">
        <ele>1056</ele>
        <time>2016-08-05T15:34:48Z</time>
      </trkpt>
      <trkpt lat="44.14808" lon="6.76344">
        <ele>1054</ele>
        <time>2016-08-05T15:36:48Z</time>
      </trkpt>
      <trkpt lat="44.14841" lon="6.76323">
        <ele>1058</ele>
        <time>2016-08-05T15:38:48Z</time>
      </trkpt>
      <trkpt lat="44.14861" lon="6.76211">
        <ele>1050</ele>
        <time>2016-08-05T15:40:48Z</time>
      </trkpt>
      <trkpt lat="44.14861" lon="6.76181">
        <ele>1046</ele>
        <time>2016-08-05T15:42:48Z</time>
      </trkpt>
      <trkpt lat="44.14832" lon="6.76085">
        <ele>1039</ele>
        <time>2016-08-05T15:44:48Z</time>
      </trkpt>
      <trkpt lat="44.14739" lon="6.75953">
        <ele>1037</ele>
        <time>2016-08-05T15:46:48Z</time>
      </trkpt>
      <trkpt lat="44.1471" lon="6.75958">
        <ele>1036</ele>
        <time>2016-08-05T15:48:48Z</time>
      </trkpt>
      <trkpt lat="44.1468" lon="6.75959">
        <ele>1034</ele>
        <time>2016-08-05T15:50:48Z</time>
      </trkpt>
      <trkpt lat="44.14651" lon="6.75929">
        <ele>1036</ele>
        <time>2016-08-05T15:52:48Z</time>
      </trkpt>
      <trkpt lat="44.14611" lon="6.75935">
        <ele>1036</ele>
        <time>2016-08-05T15:54:48Z</time>
      </trkpt>
      <trkpt lat="44.14595" lon="6.75952">
        <ele>1034</ele>
        <time>2016-08-05T15:56:48Z</time>
      </trkpt>
      <trkpt lat="44.14566" lon="6.75957">
        <ele>1035</ele>
        <time>2016-08-05T15:58:48Z</time>
      </trkpt>
      <trkpt lat="44.14563" lon="6.75913">
        <ele>1040</ele>
        <time>2016-08-05T16:00:48Z</time>
      </trkpt>
      <trkpt lat="44.14527" lon="6.75914">
        <ele>1045</ele>
        <time>2016-08-05T16:02:48Z</time>
      </trkpt>
      <trkpt lat="44.14509" lon="6.75936">
        <ele>1043</ele>
        <time>2016-08-05T16:04:48Z</time>
      </trkpt>
      <trkpt lat="44.14464" lon="6.75986">
        <ele>1043</ele>
        <time>2016-08-05T16:06:48Z</time>
      </trkpt>
      <trkpt lat="44.14438" lon="6.76043">
        <ele>1039</ele>
        <time>2016-08-05T16:08:48Z</time>
      </trkpt>
      <trkpt lat="44.14388" lon="6.76062">
        <ele>1042</ele>
        <time>2016-08-05T16:10:48Z</time>
      </trkpt>
      <trkpt lat="44.14316" lon="6.76107">
        <ele>1042</ele>
        <time>2016-08-05T16:12:48Z</time>
      </trkpt>
      <trkpt lat="44.14283" lon="6.76128">
        <ele>1041</ele>
        <time>2016-08-05T16:14:48Z</time>
      </trkpt>
      <trkpt lat="44.14261" lon="6.76128">
        <ele>1043</ele>
        <time>2016-08-05T16:16:48Z</time>
      </trkpt>
      <trkpt lat="44.14324" lon="6.76048">
        <ele>1052</ele>
        <time>2016-08-05T16:18:48Z</time>
      </trkpt>
      <trkpt lat="44.14406" lon="6.75962">
        <ele>1058</ele>
        <time>2016-08-05T16:20:48Z</time>
      </trkpt>
      <trkpt lat="44.14434" lon="6.75876">
        <ele>1064</ele>
        <time>2016-08-05T16:22:48Z</time>
      </trkpt>
      <trkpt lat="44.14486" lon="6.75812">
        <ele>1064</ele>
        <time>2016-08-05T16:24:48Z</time>
      </trkpt>
      <trkpt lat="44.14518" lon="6.75705">
        <ele>1076</ele>
        <time>2016-08-05T16:26:48Z</time>
      </trkpt>
      <trkpt lat="44.14603" lon="6.75617">
        <ele>1093</ele>
        <time>2016-08-05T16:28:48Z</time>
      </trkpt>
      <trkpt lat="44.14584" lon="6.75604">
        <ele>1097</ele>
        <time>2016-08-05T16:30:48Z</time>
      </trkpt>
      <trkpt lat="44.14608" lon="6.75563">
        <ele>1102</ele>
        <time>2016-08-05T16:32:48Z</time>
      </trkpt>
      <trkpt lat="44.14543" lon="6.75537">
        <ele>1106</ele>
        <time>2016-08-05T16:34:48Z</time>
      </trkpt>
      <trkpt lat="44.14535" lon="6.75426">
        <ele>1130</ele>
        <time>2016-08-05T16:36:48Z</time>
      </trkpt>
      <trkpt lat="44.14552" lon="6.75366">
        <ele>1146</ele>
        <time>2016-08-05T16:38:48Z</time>
      </trkpt>
      <trkpt lat="44.1452" lon="6.75353">
        <ele>1152</ele>
        <time>2016-08-05T16:40:48Z</time>
      </trkpt>
      <trkpt lat="44.14487" lon="6.75376">
        <ele>1147</ele>
        <time>2016-08-05T16:42:48Z</time>
      </trkpt>
      <trkpt lat="44.14353" lon="6.75363">
        <ele>1180</ele>
        <time>2016-08-05T16:44:48Z</time>
      </trkpt>
      <trkpt lat="44.14246" lon="6.75458">
        <ele>1189</ele>
        <time>2016-08-05T16:46:48Z</time>
      </trkpt>
      <trkpt lat="44.1413" lon="6.75511">
        <ele>1221</ele>
        <time>2016-08-05T16:48:48Z</time>
      </trkpt>
      <trkpt lat="44.14041" lon="6.7558">
        <ele>1232</ele>
        <time>2016-08-05T16:50:48Z</time>
      </trkpt>
      <trkpt lat="44.14015" lon="6.75623">
        <ele>1234</ele>
        <time>2016-08-05T16:52:48Z</time>
      </trkpt>
      <trkpt lat="44.13915" lon="6.75687">
        <ele>1264</ele>
        <time>2016-08-05T16:54:48Z</time>
      </trkpt>
      <trkpt lat="44.13838" lon="6.7573">
        <ele>1281</ele>
        <time>2016-08-05T16:56:48Z</time>
      </trkpt>
      <trkpt lat="44.13807" lon="6.7576">
        <ele>1281</ele>
        <time>2016-08-05T16:58:48Z</time>
      </trkpt>
      <trkpt lat="44.13716" lon="6.75752">
        <ele>1313</ele>
        <time>2016-08-05T17:00:48Z</time>
      </trkpt>
      <trkpt lat="44.13764" lon="6.75649">
        <ele>1336</ele>
        <time>2016-08-05T17:02:48Z</time>
      </trkpt>
      <trkpt lat="44.13836" lon="6.75567">
        <ele>1335</ele>
        <time>2016-08-05T17:04:48Z</time>
      </trkpt>
      <trkpt lat="44.13896" lon="6.75387">
        <ele>1363</ele>
        <time>2016-08-05T17:06:48Z</time>
      </trkpt>
      <trkpt lat="44.13922" lon="6.75275">
        <ele>1391</ele>
        <time>2016-08-05T17:08:48Z</time>
      </trkpt>
      <trkpt lat="44.13995" lon="6.75138">
        <ele>1406</ele>
        <time>2016-08-05T17:10:48Z</time>
      </trkpt>
      <trkpt lat="44.14121" lon="6.75011">
        <ele>1423</ele>
        <time>2016-08-05T17:12:48Z</time>
      </trkpt>
      <trkpt lat="44.14203" lon="6.74902">
        <ele>1441</ele>
        <time>2016-08-05T17:14:48Z</time>
      </trkpt>
      <trkpt lat="44.1425" lon="6.7478">
        <ele>1452</ele>
        <time>2016-08-05T17:16:48Z</time>
      </trkpt>
      <trkpt lat="44.1431" lon="6.74786">
        <ele>1452</ele>
        <time>2016-08-05T17:18:48Z</time>
      </trkpt>
      <trkpt lat="44.14395" lon="6.74754">
        <ele>1462</ele>
        <time>2016-08-05T17:20:48Z</time>
      </trkpt>
      <trkpt lat="44.14461" lon="6.74726">
        <ele>1470</ele>
        <time>2016-08-05T17:22:48Z</time>
      </trkpt>
      <trkpt lat="44.14509" lon="6.74728">
        <ele>1477</ele>
        <time>2016-08-05T17:24:48Z</time>
      </trkpt>
      <trkpt lat="44.14563" lon="6.74685">
        <ele>1487</ele>
        <time>2016-08-05T17:26:48Z</time>
      </trkpt>
      <trkpt lat="44.14692" lon="6.74606">
        <ele>1509</ele>
        <time>2016-08-05T17:28:48Z</time>
      </trkpt>
      <trkpt lat="44.14735" lon="6.74589">
        <ele>1523</ele>
        <time>2016-08-05T17:30:48Z</time>
      </trkpt>
      <trkpt lat="44.14751" lon="6.74614">
        <ele>1524</ele>
        <time>2016-08-05T17:32:48Z</time>
      </trkpt>
      <trkpt lat="44.14788" lon="6.74606">
        <ele>1537</ele>
        <time>2016-08-05T17:34:48Z</time>
      </trkpt>
      <trkpt lat="44.14862" lon="6.74619">
        <ele>1555</ele>
        <time>2016-08-05T17:36:48Z</time>
      </trkpt>
      <trkpt lat="44.1496" lon="6.74584">
        <ele>1582</ele>
        <time>2016-08-05T17:38:48Z</time>
      </trkpt>
      <trkpt lat="44.15029" lon="6.74559">
        <ele>1595</ele>
        <time>2016-08-05T17:40:48Z</time>
      </trkpt>
      <trkpt lat="44.15102" lon="6.74561">
        <ele>1607</ele>
        <time>2016-08-05T17:42:48Z</time>
      </trkpt>
      <trkpt lat="44.15154" lon="6.74544">
        <ele>1616</ele>
        <time>2016-08-05T17:44:48Z</time>
      </trkpt>
      <trkpt lat="44.15174" lon="6.74522">
        <ele>1620</ele>
        <time>2016-08-05T17:46:48Z</time>
      </trkpt>
      <trkpt lat="44.15204" lon="6.74521">
        <ele>1625</ele>
        <time>2016-08-05T17:48:48Z</time>
      </trkpt>
      <trkpt lat="44.15244" lon="6.74545">
        <ele>1633</ele>
        <time>2016-08-05T17:50:48Z</time>
      </trkpt>
      <trkpt lat="44.15283" lon="6.74536">
        <ele>1638</ele>
        <time>2016-08-05T17:52:48Z</time>
      </trkpt>
      <trkpt lat="44.15331" lon="6.74529">
        <ele>1643</ele>
        <time>2016-08-05T17:54:48Z</time>
      </trkpt>
      <trkpt lat="44.15405" lon="6.74449">
        <ele>1640</ele>
        <time>2016-08-05T17:56:48Z</time>
      </trkpt>
      <trkpt lat="44.15501" lon="6.74385">
        <ele>1639</ele>
        <time>2016-08-05T17:58:48Z</time>
      </trkpt>
      <trkpt lat="44.15576" lon="6.74338">
        <ele>1639</ele>
        <time>2016-08-05T18:00:48Z</time>
      </trkpt>
      <trkpt lat="44.15645" lon="6.74196">
        <ele>1629</ele>
        <time>2016-08-05T18:02:48Z</time>
      </trkpt>
      <trkpt lat="44.15711" lon="6.74059">
        <ele>1620</ele>
        <time>2016-08-05T18:04:48Z</time>
      </trkpt>
      <trkpt lat="44.15747" lon="6.73986">
        <ele>1616</ele>
        <time>2016-08-05T18:06:48Z</time>
      </trkpt>
      <trkpt lat="44.15758" lon="6.73948">
        <ele>1610</ele>
        <time>2016-08-05T18:08:48Z</time>
      </trkpt>
      <trkpt lat="44.1573" lon="6.73894">
        <ele>1612</ele>
        <time>2016-08-05T18:10:48Z</time>
      </trkpt>
      <trkpt lat="44.15714" lon="6.73821">
        <ele>1609</ele>
        <time>2016-08-05T18:12:48Z</time>
      </trkpt>
      <trkpt lat="44.1569" lon="6.73754">
        <ele>1602</ele>
        <time>2016-08-05T18:14:48Z</time>
      </trkpt>
      <trkpt lat="44.15694" lon="6.73694">
        <ele>1590</ele>
        <time>2016-08-05T18:16:48Z</time>
      </trkpt>
      <trkpt lat="44.15662" lon="6.73632">
        <ele>1585</ele>
        <time>2016-08-05T18:18:48Z</time>
      </trkpt>
      <trkpt lat="44.15642" lon="6.73559">
        <ele>1581</ele>
        <time>2016-08-05T18:20:48Z</time>
      </trkpt>
      <trkpt lat="44.15625" lon="6.73505">
        <ele>1579</ele>
        <time>2016-08-05T18:22:48Z</time>
      </trkpt>
      <trkpt lat="44.15608" lon="6.73424">
        <ele>1569</ele>
        <time>2016-08-05T18:24:48Z</time>
      </trkpt>
      <trkpt lat="44.15537" lon="6.73355">
        <ele>1576</ele>
        <time>2016-08-05T18:26:48Z</time>
      </trkpt>
      <trkpt lat="44.15553" lon="6.73293">
        <ele>1570</ele>
        <time>2016-08-05T18:28:48Z</time>
      </trkpt>
      <trkpt lat="44.15548" lon="6.7325">
        <ele>1572</ele>
        <time>2016-08-05T18:30:48Z</time>
      </trkpt>
      <trkpt lat="44.15622" lon="6.73218">
        <ele>1573</ele>
        <time>2016-08-05T18:32:48Z</time>
      </trkpt>
      <trkpt lat="44.15753" lon="6.7319">
        <ele>1578</ele>
        <time>2016-08-05T18:34:48Z</time>
      </trkpt>
      <trkpt lat="44.15818" lon="6.73108">
        <ele>1605</ele>
        <time>2016-08-05T18:36:48Z</time>
      </trkpt>
      <trkpt lat="44.15881" lon="6.73134">
        <ele>1600</ele>
        <time>2016-08-05T18:38:48Z</time>
      </trkpt>
      <trkpt lat="44.15932" lon="6.73125">
        <ele>1611</ele>
        <time>2016-08-05T18:40:48Z</time>
      </trkpt>
      <trkpt lat="44.15995" lon="6.73213">
        <ele>1601</ele>
        <time>2016-08-05T18:42:48Z</time>
      </trkpt>
      <trkpt lat="44.16053" lon="6.7323">
        <ele>1589</ele>
        <time>2016-08-05T18:44:48Z</time>
      </trkpt>
      <trkpt lat="44.16062" lon="6.73143">
        <ele>1609</ele>
        <time>2016-08-05T18:46:48Z</time>
      </trkpt>
      <trkpt lat="44.16087" lon="6.73046">
        <ele>1614</ele>
        <time>2016-08-05T18:48:48Z</time>
      </trkpt>
      <trkpt lat="44.16078" lon="6.72812">
        <ele>1633</ele>
        <time>2016-08-05T18:50:48Z</time>
      </trkpt>
      <trkpt lat="44.16059" lon="6.72681">
        <ele>1663</ele>
        <time>2016-08-05T18:52:48Z</time>
      </trkpt>
      <trkpt lat="44.16109" lon="6.72479">
        <ele>1685</ele>
        <time>2016-08-05T18:54:48Z</time>
      </trkpt>
      <trkpt lat="44.16093" lon="6.72355">
        <ele>1702</ele>
        <time>2016-08-05T18:56:48Z</time>
      </trkpt>
      <trkpt lat="44.16056" lon="6.72222">
        <ele>1713</ele>
        <time>2016-08-05T18:58:48Z</time>
      </trkpt>
      <trkpt lat="44.1605" lon="6.7202">
        <ele>1710</ele>
        <time>2016-08-05T19:00:48Z</time>
      </trkpt>
      <trkpt lat="44.15982" lon="6.71784">
        <ele>1741</ele>
        <time>2016-08-05T19:02:48Z</time>
      </trkpt>
      <trkpt lat="44.15961" lon="6.71825">
        <ele>1745</ele>
        <time>2016-08-05T19:04:48Z</time>
      </trkpt>
      <trkpt lat="44.1595" lon="6.71786">
        <ele>1751</ele>
        <time>2016-08-05T19:06:48Z</time>
      </trkpt>
      <trkpt lat="44.15979" lon="6.71705">
        <ele>1759</ele>
        <time>2016-08-05T19:08:48Z</time>
      </trkpt>
      <trkpt lat="44.16082" lon="6.71692">
        <ele>1757</ele>
        <time>2016-08-05T19:10:48Z</time>
      </trkpt>
      <trkpt lat="44.16122" lon="6.71585">
        <ele>1776</ele>
        <time>2016-08-05T19:12:48Z</time>
      </trkpt>
      <trkpt lat="44.16159" lon="6.71469">
        <ele>1782</ele>
        <time>2016-08-05T19:14:48Z</time>
      </trkpt>
      <trkpt lat="44.16115" lon="6.71276">
        <ele>1815</ele>
        <time>2016-08-05T19:16:48Z</time>
      </trkpt>
      <trkpt lat="44.16162" lon="6.7122">
        <ele>1817</ele>
        <time>2016-08-05T19:18:48Z</time>
      </trkpt>
      <trkpt lat="44.16164" lon="6.71186">
        <ele>1826</ele>
        <time>2016-08-05T19:20:48Z</time>
      </trkpt>
      <trkpt lat="44.16206" lon="6.71147">
        <ele>1832</ele>
        <time>2016-08-05T19:22:48Z</time>
      </trkpt>
      <trkpt lat="44.16259" lon="6.71093">
        <ele>1837</ele>
        <time>2016-08-05T19:24:48Z</time>
      </trkpt>
      <trkpt lat="44.16341" lon="6.71121">
        <ele>1850</ele>
        <time>2016-08-05T19:26:48Z</time>
      </trkpt>
      <trkpt lat="44.16404" lon="6.71022">
        <ele>1876</ele>
        <time>2016-08-05T19:28:48Z</time>
      </trkpt>
      <trkpt lat="44.16515" lon="6.70962">
        <ele>1892</ele>
        <time>2016-08-05T19:30:48Z</time>
      </trkpt>
      <trkpt lat="44.16538" lon="6.70892">
        <ele>1903</ele>
        <time>2016-08-05T19:32:48Z</time>
      </trkpt>
      <trkpt lat="44.16595" lon="6.70823">
        <ele>1917</ele>
        <time>2016-08-05T19:34:48Z</time>
      </trkpt>
      <trkpt lat="44.1662" lon="6.7072">
        <ele>1936</ele>
        <time>2016-08-05T19:36:48Z</time>
      </trkpt>
      <trkpt lat="44.16661" lon="6.70595">
        <ele>1960</ele>
        <time>2016-08-05T19:38:48Z</time>
      </trkpt>
      <trkpt lat="44.16723" lon="6.70501">
        <ele>1981</ele>
        <time>2016-08-05T19:40:48Z</time>
      </trkpt>
      <trkpt lat="44.16767" lon="6.70497">
        <ele>1982</ele>
        <time>2016-08-05T19:42:48Z</time>
      </trkpt>
      <trkpt lat="44.1683" lon="6.70458">
        <ele>1995</ele>
        <time>2016-08-05T19:44:48Z</time>
      </trkpt>
      <trkpt lat="44.1683" lon="6.70462">
        <ele>1994</ele>
        <time>2016-08-05T19:46:48Z</time>
      </trkpt>
      <trkpt lat="44.16826" lon="6.7042">
        <ele>1999</ele>
        <time>2016-08-05T19:48:48Z</time>
      </trkpt>
      <trkpt lat="44.16884" lon="6.70443">
        <ele>2011</ele>
        <time>2016-08-05T19:50:48Z</time>
      </trkpt>
      <trkpt lat="44.16907" lon="6.70495">
        <ele>2016</ele>
        <time>2016-08-05T19:52:48Z</time>
      </trkpt>
      <trkpt lat="44.16914" lon="6.7055">
        <ele>2015</ele>
        <time>2016-08-05T19:54:48Z</time>
      </trkpt>
      <trkpt lat="44.16971" lon="6.70484">
        <ele>2034</ele>
        <time>2016-08-05T19:56:48Z</time>
      </trkpt>
      <trkpt lat="44.17021" lon="6.70458">
        <ele>2046</ele>
        <time>2016-08-05T19:58:48Z</time>
      </trkpt>
      <trkpt lat="44.17044" lon="6.70501">
        <ele>2047</ele>
        <time>2016-08-05T20:00:48Z</time>
      </trkpt>
      <trkpt lat="44.17077" lon="6.70415">
        <ele>2054</ele>
        <time>2016-08-05T20:02:48Z</time>
      </trkpt>
      <trkpt lat="44.17134" lon="6.70503">
        <ele>2047</ele>
        <time>2016-08-05T20:04:48Z</time>
      </trkpt>
      <trkpt lat="44.17169" lon="6.70413">
        <ele>2051</ele>
        <time>2016-08-05T20:06:48Z</time>
      </trkpt>
      <trkpt lat="44.17246" lon="6.7042">
        <ele>2041</ele>
        <time>2016-08-05T20:08:48Z</time>
      </trkpt>
      <trkpt lat="44.173" lon="6.70377">
        <ele>2043</ele>
        <time>2016-08-05T20:10:48Z</time>
      </trkpt>
      <trkpt lat="44.17363" lon="6.70299">
        <ele>2042</ele>
        <time>2016-08-05T20:12:48Z</time>
      </trkpt>
      <trkpt lat="44.17435" lon="6.70286">
        <ele>2035</ele>
        <time>2016-08-05T20:14:48Z</time>
      </trkpt>
      <trkpt lat="44.17465" lon="6.70267">
        <ele>2035</ele>
        <time>2016-08-05T20:16:48Z</time>
      </trkpt>
      <trkpt lat="44.17523" lon="6.70295">
        <ele>2031</ele>
        <time>2016-08-05T20:18:48Z</time>
      </trkpt>
      <trkpt lat="44.17565" lon="6.70289">
        <ele>2032</ele>
        <time>2016-08-05T20:20:48Z</time>
      </trkpt>
      <trkpt lat="44.1762" lon="6.70289">
        <ele>2032</ele>
        <time>2016-08-05T20:22:48Z</time>
      </trkpt>
      <trkpt lat="44.17649" lon="6.70237">
        <ele>2035</ele>
        <time>2016-08-05T20:24:48Z</time>
      </trkpt>
      <trkpt lat="44.17695" lon="6.70194">
        <ele>2039</ele>
        <time>2016-08-05T20:26:48Z</time>
      </trkpt>
      <trkpt lat="44.17757" lon="6.70143">
        <ele>2043</ele>
        <time>2016-08-05T20:28:48Z</time>
      </trkpt>
      <trkpt lat="44.17759" lon="6.70111">
        <ele>2044</ele>
        <time>2016-08-05T20:30:48Z</time>
      </trkpt>
    </trkseg>
  </trk>
</gpx>